Time;durP1;ratioP1;P1;durP2;ratioP2;P2;SDS_P1;SDS_P2;PMS_P1;PMS_P2;Temp;Humidity;BMP_temperature;BMP_pressure;BME280_temperature;BME280_humidity;BME280_pressure;Samples;Min_cycle;Max_cycle;Signal;HPM_P1;HPM_P2
2023/03/02 05:30:36;;;;;;;8.63;5.77;;;;;;;-2.27;44.34;101229.25;24093321;23;20254;-88
2023/03/02 05:40:39;;;;;;;6.73;5.00;;;;;;;-2.75;46.37;101225.66;20555601;28;20207;-85
2023/03/02 05:50:41;;;;;;;9.67;6.43;;;;;;;-2.69;45.56;101225.59;20515983;28;20242;-88
2023/03/02 06:00:46;;;;;;;7.20;5.23;;;;;;;-2.79;45.49;101225.28;20483678;29;20200;-89
2023/03/02 06:10:54;;;;;;;7.07;4.47;;;;;;;-2.31;44.58;101235.50;20456606;29;20476;-90
2023/03/02 06:20:57;;;;;;;7.20;4.40;;;;;;;-1.78;44.53;101242.97;20497061;29;20278;-92
2023/03/02 06:30:59;;;;;;;7.27;5.10;;;;;;;-1.99;43.98;101250.72;20525367;29;20227;-89
2023/03/02 06:41:01;;;;;;;6.90;5.00;;;;;;;-2.62;46.04;101256.72;20509405;29;20199;-89
2023/03/02 06:51:04;;;;;;;7.87;4.00;;;;;;;-2.60;46.36;101271.16;20484675;29;20271;-91
2023/03/02 07:01:06;;;;;;;8.37;4.07;;;;;;;-2.09;44.57;101269.84;20426915;29;20555;-88
2023/03/02 07:11:11;;;;;;;7.13;4.30;;;;;;;-3.66;48.22;101282.41;20467085;29;20520;-90
2023/03/02 07:21:13;;;;;;;7.50;4.17;;;;;;;-2.14;45.16;101271.63;20479566;29;20248;-90
2023/03/02 07:31:15;;;;;;;7.53;3.93;;;;;;;-1.51;43.46;101271.91;20492158;29;20223;-89
2023/03/02 07:41:18;;;;;;;6.00;3.97;;;;;;;-1.56;42.77;101271.78;20490334;29;20195;-90
2023/03/02 07:51:20;;;;;;;7.50;4.60;;;;;;;-0.98;41.86;101266.28;20453381;29;20217;-89
2023/03/02 08:01:22;;;;;;;10.13;4.73;;;;;;;-1.44;42.47;101278.16;20463485;29;20231;-90
2023/03/02 08:11:25;;;;;;;5.83;3.77;;;;;;;-1.33;41.82;101282.88;20488745;29;20224;-89
2023/03/02 08:21:27;;;;;;;6.20;3.87;;;;;;;-0.66;40.51;101268.63;20507242;29;20200;-91
2023/03/02 08:31:30;;;;;;;5.03;4.10;;;;;;;-0.30;39.88;101267.47;20434370;29;20506;-91
2023/03/02 08:41:33;;;;;;;7.00;4.03;;;;;;;-0.70;39.25;101262.72;20429014;29;20199;-91
2023/03/02 08:51:36;;;;;;;6.40;3.50;;;;;;;0.42;37.89;101256.56;20463482;29;20275;-91
2023/03/02 09:01:39;;;;;;;5.60;4.00;;;;;;;0.32;38.39;101248.94;20469887;29;20196;-92
2023/03/02 09:11:43;;;;;;;5.47;3.40;;;;;;;0.43;37.35;101239.66;20426836;29;20636;-89
2023/03/02 09:21:45;;;;;;;5.00;3.70;;;;;;;1.31;36.04;101224.03;20471758;28;20223;-90
2023/03/02 09:31:48;;;;;;;6.07;3.40;;;;;;;1.77;34.57;101221.81;20476193;29;20632;-92
2023/03/02 09:42:04;;;;;;;7.47;4.10;;;;;;;1.70;34.40;101217.28;20503367;29;20203;-88
2023/03/02 09:52:18;;;;;;;5.83;3.57;;;;;;;2.08;34.00;101213.47;20528136;29;20242;-92
2023/03/02 10:02:35;;;;;;;6.00;3.63;;;;;;;2.73;32.81;101205.94;20491049;29;20221;-88
2023/03/02 10:13:01;;;;;;;6.17;3.57;;;;;;;3.23;31.23;101207.34;20496819;28;20286;-91
2023/03/02 10:23:39;;;;;;;3.77;3.07;;;;;;;2.56;31.34;101202.44;20502984;29;20586;-90
2023/03/02 10:33:41;;;;;;;4.10;3.23;;;;;;;3.23;30.25;101201.78;20501005;28;20518;-91
2023/03/02 10:43:45;;;;;;;5.80;3.50;;;;;;;3.64;30.02;101192.44;20508719;29;20576;-92
2023/03/02 10:53:48;;;;;;;4.67;3.10;;;;;;;3.23;30.43;101196.19;20524218;29;20266;-90
2023/03/02 11:03:58;;;;;;;3.37;2.53;;;;;;;3.68;29.46;101190.78;20523990;29;20195;-91
2023/03/02 11:14:15;;;;;;;4.73;2.90;;;;;;;3.98;29.91;101180.81;20493487;29;20219;-88
2023/03/02 11:24:35;;;;;;;4.17;3.00;;;;;;;4.76;28.69;101175.78;20472913;29;20195;-91
2023/03/02 11:34:47;;;;;;;4.03;2.97;;;;;;;4.65;29.05;101186.13;20490675;29;20234;-92
2023/03/02 11:44:50;;;;;;;6.00;3.63;;;;;;;4.97;28.14;101170.94;20504375;28;20223;-90
2023/03/02 11:55:03;;;;;;;3.70;2.90;;;;;;;5.29;28.11;101160.19;20474120;29;20204;-90
2023/03/02 12:05:42;;;;;;;3.53;2.70;;;;;;;4.69;28.71;101150.03;20503621;29;20238;-90
2023/03/02 12:15:50;;;;;;;4.23;2.60;;;;;;;5.38;26.48;101129.66;20469206;29;20208;-92
2023/03/02 12:26:24;;;;;;;3.70;2.70;;;;;;;4.94;27.45;101116.38;20452317;29;20235;-92
2023/03/02 12:36:31;;;;;;;5.83;2.40;;;;;;;5.29;26.55;101104.19;20505479;29;20234;-92
2023/03/02 12:46:38;;;;;;;6.07;2.50;;;;;;;5.50;27.34;101096.56;20481318;29;20559;-92
2023/03/02 12:56:41;;;;;;;4.17;2.30;;;;;;;6.16;26.46;101087.66;20475951;28;20270;-92
2023/03/02 13:06:43;;;;;;;3.97;3.07;;;;;;;6.56;25.85;101070.44;20469839;29;20212;-91
2023/03/02 13:17:01;;;;;;;3.27;2.40;;;;;;;6.46;27.46;101044.41;20490348;29;20207;-92
2023/03/02 13:27:06;;;;;;;2.75;2.22;;;;;;;6.46;27.02;101042.44;20436864;29;20213;-92
2023/03/02 13:37:19;;;;;;;4.07;2.50;;;;;;;6.59;27.95;101038.97;20427385;29;20260;-90
2023/03/02 13:47:23;;;;;;;3.50;2.70;;;;;;;6.97;27.50;101033.44;20436736;29;20360;-91
2023/03/02 13:57:29;;;;;;;4.73;2.57;;;;;;;7.13;27.90;101032.09;20419382;29;20406;-91
2023/03/02 14:07:32;;;;;;;4.75;2.85;;;;;;;6.81;28.65;101015.16;20415601;29;20525;-90
2023/03/02 14:17:34;;;;;;;4.03;2.40;;;;;;;6.30;28.46;101004.50;20443641;29;20259;-90
2023/03/02 14:27:37;;;;;;;3.23;2.57;;;;;;;6.50;28.38;100992.22;20436974;29;20259;-91
2023/03/02 14:37:42;;;;;;;3.50;2.80;;;;;;;6.66;28.91;100979.69;20461360;29;20243;-90
2023/03/02 14:47:45;;;;;;;5.67;2.30;;;;;;;6.64;28.31;100977.19;20427208;29;20248;-89
2023/03/02 14:57:54;;;;;;;2.87;2.60;;;;;;;6.81;29.04;100978.66;20402857;29;20228;-89
2023/03/02 15:07:58;;;;;;;3.93;2.73;;;;;;;6.79;29.53;100972.53;20410593;29;20391;-88
2023/03/02 15:18:01;;;;;;;4.73;3.17;;;;;;;6.39;30.43;100963.47;20428871;29;20255;-88
2023/03/02 15:28:04;;;;;;;3.93;3.00;;;;;;;6.45;30.68;100967.84;20442486;29;20224;-87
2023/03/02 15:38:07;;;;;;;9.73;7.03;;;;;;;6.95;33.88;100965.56;20412219;29;20224;-87
2023/03/02 15:48:09;;;;;;;9.63;7.13;;;;;;;6.77;34.87;100969.16;20393999;29;20282;-86
2023/03/02 15:58:16;;;;;;;10.93;7.90;;;;;;;6.88;35.55;100976.31;20415491;29;20200;-88
2023/03/02 16:08:18;;;;;;;12.03;7.07;;;;;;;6.32;36.63;100983.44;20442221;29;20274;-89
2023/03/02 16:18:21;;;;;;;8.60;7.17;;;;;;;5.88;37.87;100986.44;20414185;29;20210;-88
2023/03/02 16:28:23;;;;;;;9.60;7.43;;;;;;;6.10;37.51;100993.50;20627681;23;20560;-80
2023/03/02 16:38:25;;;;;;;10.70;7.40;;;;;;;5.39;39.16;101003.34;20493402;28;20692;-83
2023/03/02 16:48:27;;;;;;;10.77;7.87;;;;;;;5.43;39.01;101012.03;20491196;28;20917;-82
2023/03/02 16:58:30;;;;;;;13.33;8.33;;;;;;;4.94;40.65;101021.25;20487172;28;20257;-82
2023/03/02 17:08:32;;;;;;;15.80;10.10;;;;;;;4.70;41.76;101026.69;20472696;29;20722;-78
2023/03/02 17:18:35;;;;;;;15.70;10.77;;;;;;;4.42;41.99;101042.16;20491841;28;20195;-79
2023/03/02 17:28:38;;;;;;;16.50;9.20;;;;;;;4.79;41.46;101046.50;20490495;28;20232;-80
2023/03/02 17:38:40;;;;;;;15.40;10.63;;;;;;;3.50;45.18;101083.25;20416148;29;20224;-80
2023/03/02 17:48:42;;;;;;;16.03;10.87;;;;;;;4.59;43.56;101089.38;20392318;29;20248;-82
2023/03/02 17:58:45;;;;;;;13.87;10.17;;;;;;;3.91;44.77;101108.44;20395861;29;20222;-81
2023/03/02 18:08:48;;;;;;;17.03;10.50;;;;;;;3.38;45.89;101118.13;20387799;29;20234;-83
2023/03/02 18:18:51;;;;;;;15.00;10.67;;;;;;;3.00;46.74;101136.13;20401017;28;20219;-81
2023/03/02 18:28:55;;;;;;;15.20;11.23;;;;;;;3.28;46.18;101144.03;20386304;29;20255;-80
2023/03/02 18:38:57;;;;;;;16.23;10.67;;;;;;;2.90;47.59;101159.22;20400536;29;20192;-79
2023/03/02 18:48:59;;;;;;;16.23;11.57;;;;;;;2.41;48.90;101184.53;20410755;29;20251;-80
2023/03/02 18:59:04;;;;;;;18.67;12.47;;;;;;;1.92;51.04;101191.31;20406114;29;20243;-80
2023/03/02 19:09:06;;;;;;;19.30;13.27;;;;;;;2.07;50.69;101202.59;20425729;29;20250;-81
2023/03/02 19:19:08;;;;;;;17.53;12.97;;;;;;;1.95;51.02;101201.94;20427932;29;20245;-82
2023/03/02 19:29:11;;;;;;;20.80;14.73;;;;;;;1.86;51.19;101203.50;20403004;29;20224;-81
2023/03/02 19:39:13;;;;;;;21.07;14.73;;;;;;;1.31;52.88;101235.16;20397363;29;20247;-80
2023/03/02 19:49:16;;;;;;;21.90;14.87;;;;;;;0.46;53.90;101238.31;20410732;29;20283;-81
2023/03/02 19:59:22;;;;;;;22.63;16.13;;;;;;;1.21;53.18;101240.59;20401445;29;20252;-80
2023/03/02 20:09:24;;;;;;;25.73;15.70;;;;;;;1.42;52.30;101252.81;20367104;29;20244;-82
2023/03/02 20:19:26;;;;;;;21.47;14.83;;;;;;;0.91;53.57;101249.31;20392892;29;20203;-80
2023/03/02 20:29:28;;;;;;;26.33;16.97;;;;;;;0.83;53.32;101261.69;20378127;29;20223;-78
2023/03/02 20:39:33;;;;;;;25.73;17.63;;;;;;;1.04;53.39;101272.03;20377052;29;20197;-82
2023/03/02 20:49:36;;;;;;;25.93;18.13;;;;;;;0.35;56.18;101276.16;20393695;29;20227;-78
2023/03/02 20:59:39;;;;;;;26.63;18.30;;;;;;;0.72;54.89;101276.53;20358421;29;20218;-82
2023/03/02 21:09:42;;;;;;;28.10;19.30;;;;;;;1.08;53.54;101277.09;20376730;29;20217;-82
2023/03/02 21:19:45;;;;;;;30.43;18.97;;;;;;;1.15;53.59;101274.94;20387692;29;20270;-81
2023/03/02 21:29:47;;;;;;;34.00;20.77;;;;;;;-0.08;57.70;101265.69;20391718;29;20297;-78
2023/03/02 21:39:50;;;;;;;34.83;21.47;;;;;;;-0.33;58.49;101262.41;20389916;29;20593;-79
2023/03/02 21:49:52;;;;;;;39.60;24.00;;;;;;;0.52;55.34;101254.81;20413794;29;20261;-81
2023/03/02 21:59:55;;;;;;;42.43;24.73;;;;;;;0.14;57.05;101263.03;20413279;29;20196;-81
2023/03/02 22:09:57;;;;;;;39.03;23.13;;;;;;;0.53;55.85;101255.66;20426042;29;20227;-81
2023/03/02 22:19:59;;;;;;;36.47;21.63;;;;;;;-0.03;58.31;101254.66;20404526;29;20203;-80
2023/03/02 22:30:14;;;;;;;40.97;24.20;;;;;;;0.65;55.67;101264.75;20421763;29;20284;-81
2023/03/02 22:40:31;;;;;;;38.27;23.83;;;;;;;0.07;57.00;101270.69;20402949;29;20664;-78
2023/03/02 22:50:33;;;;;;;35.07;21.87;;;;;;;-0.13;57.21;101265.56;20412187;29;20294;-82
2023/03/02 23:00:39;;;;;;;33.57;21.30;;;;;;;-0.21;58.72;101271.53;20399818;29;20251;-82
2023/03/02 23:10:42;;;;;;;35.40;21.33;;;;;;;-0.05;57.52;101281.84;20373943;29;20220;-81
2023/03/02 23:20:44;;;;;;;33.43;20.63;;;;;;;-0.20;57.91;101278.78;20403861;29;20224;-82
2023/03/02 23:30:46;;;;;;;35.50;21.57;;;;;;;0.00;57.34;101279.16;20410607;28;20326;-78
2023/03/02 23:40:48;;;;;;;33.73;19.73;;;;;;;-0.68;59.03;101281.91;20400126;29;20197;-81
2023/03/02 23:50:51;;;;;;;30.27;18.20;;;;;;;-0.38;58.24;101273.38;20410440;29;20735;-82
